sensor_id;sensor_type;location;lat;lon;timestamp;P1;durP1;ratioP1;P2;durP2;ratioP2
12947;SDS011;6539;49.476;8.484;2023-04-07T00:00:16;11.07;;;8.17;;
12947;SDS011;6539;49.476;8.484;2023-04-07T00:02:46;11.40;;;7.17;;
12947;SDS011;6539;49.476;8.484;2023-04-07T00:05:13;7.93;;;7.03;;
12947;SDS011;6539;49.476;8.484;2023-04-07T00:07:39;8.30;;;7.20;;
12947;SDS011;6539;49.476;8.484;2023-04-07T00:10:06;9.23;;;7.60;;
12947;SDS011;6539;49.476;8.484;2023-04-07T00:12:32;10.07;;;7.37;;
12947;SDS011;6539;49.476;8.484;2023-04-07T00:14:58;8.47;;;7.57;;
12947;SDS011;6539;49.476;8.484;2023-04-07T00:17:24;8.33;;;7.33;;
12947;SDS011;6539;49.476;8.484;2023-04-07T00:19:50;10.67;;;7.63;;
12947;SDS011;6539;49.476;8.484;2023-04-07T00:22:18;8.80;;;6.80;;
12947;SDS011;6539;49.476;8.484;2023-04-07T00:24:46;8.90;;;7.17;;
12947;SDS011;6539;49.476;8.484;2023-04-07T00:27:14;9.00;;;7.97;;
12947;SDS011;6539;49.476;8.484;2023-04-07T00:29:45;10.03;;;8.23;;
12947;SDS011;6539;49.476;8.484;2023-04-07T00:32:11;8.43;;;7.60;;
12947;SDS011;6539;49.476;8.484;2023-04-07T00:34:37;9.87;;;8.33;;
12947;SDS011;6539;49.476;8.484;2023-04-07T00:37:03;9.90;;;8.00;;
12947;SDS011;6539;49.476;8.484;2023-04-07T00:39:31;8.87;;;7.57;;
12947;SDS011;6539;49.476;8.484;2023-04-07T00:41:59;9.30;;;7.90;;
12947;SDS011;6539;49.476;8.484;2023-04-07T00:44:27;11.97;;;8.17;;
12947;SDS011;6539;49.476;8.484;2023-04-07T00:46:55;9.30;;;7.70;;
12947;SDS011;6539;49.476;8.484;2023-04-07T00:49:24;9.17;;;7.87;;
12947;SDS011;6539;49.476;8.484;2023-04-07T00:51:57;9.67;;;7.97;;
12947;SDS011;6539;49.476;8.484;2023-04-07T00:54:25;10.70;;;8.40;;
12947;SDS011;6539;49.476;8.484;2023-04-07T00:56:54;11.03;;;8.03;;
12947;SDS011;6539;49.476;8.484;2023-04-07T00:59:21;8.90;;;8.00;;
12947;SDS011;6539;49.476;8.484;2023-04-07T01:04:50;9.10;;;7.20;;
12947;SDS011;6539;49.476;8.484;2023-04-07T01:07:24;9.43;;;7.67;;
12947;SDS011;6539;49.476;8.484;2023-04-07T01:10:00;9.43;;;8.37;;
12947;SDS011;6539;49.476;8.484;2023-04-07T01:12:33;12.67;;;7.80;;
12947;SDS011;6539;49.476;8.484;2023-04-07T01:15:11;9.83;;;7.47;;
12947;SDS011;6539;49.476;8.484;2023-04-07T01:17:41;10.80;;;7.43;;
12947;SDS011;6539;49.476;8.484;2023-04-07T01:20:13;8.43;;;7.40;;
12947;SDS011;6539;49.476;8.484;2023-04-07T01:22:46;9.07;;;7.97;;
12947;SDS011;6539;49.476;8.484;2023-04-07T01:31:39;8.67;;;7.77;;
12947;SDS011;6539;49.476;8.484;2023-04-07T01:34:09;9.77;;;7.97;;
12947;SDS011;6539;49.476;8.484;2023-04-07T01:36:37;9.27;;;7.60;;
12947;SDS011;6539;49.476;8.484;2023-04-07T01:39:04;10.87;;;8.27;;
12947;SDS011;6539;49.476;8.484;2023-04-07T01:41:31;9.47;;;7.50;;
12947;SDS011;6539;49.476;8.484;2023-04-07T01:43:58;8.53;;;7.63;;
12947;SDS011;6539;49.476;8.484;2023-04-07T01:46:27;8.40;;;7.30;;
12947;SDS011;6539;49.476;8.484;2023-04-07T01:48:56;10.17;;;7.37;;
12947;SDS011;6539;49.476;8.484;2023-04-07T01:51:23;9.00;;;7.33;;
12947;SDS011;6539;49.476;8.484;2023-04-07T01:53:55;10.00;;;8.13;;
12947;SDS011;6539;49.476;8.484;2023-04-07T01:56:21;9.23;;;7.43;;
12947;SDS011;6539;49.476;8.484;2023-04-07T01:58:47;8.70;;;7.73;;
12947;SDS011;6539;49.476;8.484;2023-04-07T02:01:13;8.97;;;7.83;;
12947;SDS011;6539;49.476;8.484;2023-04-07T02:03:42;8.73;;;6.93;;
12947;SDS011;6539;49.476;8.484;2023-04-07T02:06:17;9.17;;;7.13;;
12947;SDS011;6539;49.476;8.484;2023-04-07T02:08:51;9.53;;;8.00;;
12947;SDS011;6539;49.476;8.484;2023-04-07T02:11:23;11.30;;;7.53;;
12947;SDS011;6539;49.476;8.484;2023-04-07T02:13:52;9.17;;;7.43;;
12947;SDS011;6539;49.476;8.484;2023-04-07T02:16:24;9.33;;;7.53;;
12947;SDS011;6539;49.476;8.484;2023-04-07T02:18:52;8.10;;;7.33;;
12947;SDS011;6539;49.476;8.484;2023-04-07T02:21:18;8.93;;;7.50;;
12947;SDS011;6539;49.476;8.484;2023-04-07T02:23:45;11.40;;;8.10;;
12947;SDS011;6539;49.476;8.484;2023-04-07T02:26:11;9.60;;;7.63;;
12947;SDS011;6539;49.476;8.484;2023-04-07T02:28:40;9.10;;;7.93;;
12947;SDS011;6539;49.476;8.484;2023-04-07T02:31:10;9.90;;;8.20;;
12947;SDS011;6539;49.476;8.484;2023-04-07T02:33:37;12.37;;;8.30;;
12947;SDS011;6539;49.476;8.484;2023-04-07T02:36:03;13.10;;;8.40;;
12947;SDS011;6539;49.476;8.484;2023-04-07T02:38:30;10.37;;;8.30;;
12947;SDS011;6539;49.476;8.484;2023-04-07T02:41:01;10.20;;;8.20;;
12947;SDS011;6539;49.476;8.484;2023-04-07T02:43:30;9.77;;;8.23;;
12947;SDS011;6539;49.476;8.484;2023-04-07T02:45:58;11.53;;;8.73;;
12947;SDS011;6539;49.476;8.484;2023-04-07T02:48:24;11.10;;;8.43;;
12947;SDS011;6539;49.476;8.484;2023-04-07T02:50:51;11.40;;;8.80;;
12947;SDS011;6539;49.476;8.484;2023-04-07T02:53:16;9.47;;;8.30;;
12947;SDS011;6539;49.476;8.484;2023-04-07T02:55:45;9.83;;;8.23;;
12947;SDS011;6539;49.476;8.484;2023-04-07T02:58:13;11.50;;;8.70;;
12947;SDS011;6539;49.476;8.484;2023-04-07T03:00:39;11.30;;;8.40;;
12947;SDS011;6539;49.476;8.484;2023-04-07T03:03:04;9.87;;;8.57;;
12947;SDS011;6539;49.476;8.484;2023-04-07T03:05:33;9.17;;;8.17;;
12947;SDS011;6539;49.476;8.484;2023-04-07T03:07:59;9.03;;;7.93;;
12947;SDS011;6539;49.476;8.484;2023-04-07T03:10:27;11.97;;;7.77;;
12947;SDS011;6539;49.476;8.484;2023-04-07T03:12:55;9.57;;;7.93;;
12947;SDS011;6539;49.476;8.484;2023-04-07T03:15:24;8.33;;;7.47;;
12947;SDS011;6539;49.476;8.484;2023-04-07T03:17:50;8.40;;;7.00;;
12947;SDS011;6539;49.476;8.484;2023-04-07T03:20:15;8.60;;;7.70;;
12947;SDS011;6539;49.476;8.484;2023-04-07T03:22:51;9.80;;;8.30;;
12947;SDS011;6539;49.476;8.484;2023-04-07T03:25:19;9.33;;;7.53;;
12947;SDS011;6539;49.476;8.484;2023-04-07T03:27:45;9.20;;;7.47;;
12947;SDS011;6539;49.476;8.484;2023-04-07T03:30:11;9.40;;;7.80;;
12947;SDS011;6539;49.476;8.484;2023-04-07T03:32:40;8.83;;;7.93;;
12947;SDS011;6539;49.476;8.484;2023-04-07T03:35:13;8.53;;;7.50;;
12947;SDS011;6539;49.476;8.484;2023-04-07T03:37:39;8.73;;;6.87;;
12947;SDS011;6539;49.476;8.484;2023-04-07T03:40:07;8.70;;;7.50;;
12947;SDS011;6539;49.476;8.484;2023-04-07T03:42:33;9.50;;;7.87;;
12947;SDS011;6539;49.476;8.484;2023-04-07T03:44:59;9.97;;;8.80;;
12947;SDS011;6539;49.476;8.484;2023-04-07T03:47:25;9.57;;;7.90;;
12947;SDS011;6539;49.476;8.484;2023-04-07T03:49:53;11.97;;;8.90;;
12947;SDS011;6539;49.476;8.484;2023-04-07T03:52:21;10.70;;;8.97;;
12947;SDS011;6539;49.476;8.484;2023-04-07T03:54:47;12.07;;;8.60;;
12947;SDS011;6539;49.476;8.484;2023-04-07T03:57:15;11.57;;;8.73;;
12947;SDS011;6539;49.476;8.484;2023-04-07T03:59:41;9.77;;;8.27;;
12947;SDS011;6539;49.476;8.484;2023-04-07T04:02:15;10.20;;;8.30;;
12947;SDS011;6539;49.476;8.484;2023-04-07T04:04:41;12.00;;;8.70;;
12947;SDS011;6539;49.476;8.484;2023-04-07T04:07:07;10.03;;;8.20;;
12947;SDS011;6539;49.476;8.484;2023-04-07T04:09:33;10.50;;;8.27;;
12947;SDS011;6539;49.476;8.484;2023-04-07T04:12:01;9.83;;;8.30;;
12947;SDS011;6539;49.476;8.484;2023-04-07T04:14:29;9.13;;;8.20;;
12947;SDS011;6539;49.476;8.484;2023-04-07T04:16:55;8.13;;;7.33;;
12947;SDS011;6539;49.476;8.484;2023-04-07T04:19:23;10.90;;;8.47;;
12947;SDS011;6539;49.476;8.484;2023-04-07T04:21:51;9.93;;;8.47;;
12947;SDS011;6539;49.476;8.484;2023-04-07T04:24:19;11.97;;;8.80;;
12947;SDS011;6539;49.476;8.484;2023-04-07T04:26:47;8.70;;;7.80;;
12947;SDS011;6539;49.476;8.484;2023-04-07T04:29:15;11.17;;;8.07;;
12947;SDS011;6539;49.476;8.484;2023-04-07T04:31:41;9.70;;;8.10;;
12947;SDS011;6539;49.476;8.484;2023-04-07T04:34:06;13.07;;;8.17;;
12947;SDS011;6539;49.476;8.484;2023-04-07T04:36:37;8.80;;;7.90;;
12947;SDS011;6539;49.476;8.484;2023-04-07T04:39:05;10.50;;;7.83;;
12947;SDS011;6539;49.476;8.484;2023-04-07T04:41:36;9.97;;;8.07;;
12947;SDS011;6539;49.476;8.484;2023-04-07T04:44:06;10.23;;;7.90;;
12947;SDS011;6539;49.476;8.484;2023-04-07T04:46:35;9.47;;;8.30;;
12947;SDS011;6539;49.476;8.484;2023-04-07T04:49:02;10.80;;;8.53;;
12947;SDS011;6539;49.476;8.484;2023-04-07T04:51:33;9.03;;;7.47;;
12947;SDS011;6539;49.476;8.484;2023-04-07T04:54:02;9.37;;;7.90;;
12947;SDS011;6539;49.476;8.484;2023-04-07T04:56:30;8.80;;;6.87;;
12947;SDS011;6539;49.476;8.484;2023-04-07T04:58:56;11.80;;;8.23;;
12947;SDS011;6539;49.476;8.484;2023-04-07T05:01:26;9.70;;;8.40;;
12947;SDS011;6539;49.476;8.484;2023-04-07T05:03:56;11.07;;;7.73;;
12947;SDS011;6539;49.476;8.484;2023-04-07T05:06:22;11.27;;;8.53;;
12947;SDS011;6539;49.476;8.484;2023-04-07T05:08:48;9.40;;;7.93;;
12947;SDS011;6539;49.476;8.484;2023-04-07T05:11:16;9.53;;;7.40;;
12947;SDS011;6539;49.476;8.484;2023-04-07T05:13:41;12.13;;;8.20;;
12947;SDS011;6539;49.476;8.484;2023-04-07T05:16:07;10.30;;;8.20;;
12947;SDS011;6539;49.476;8.484;2023-04-07T05:18:37;9.70;;;7.90;;
12947;SDS011;6539;49.476;8.484;2023-04-07T05:21:03;11.33;;;7.40;;
12947;SDS011;6539;49.476;8.484;2023-04-07T05:23:29;9.83;;;7.63;;
12947;SDS011;6539;49.476;8.484;2023-04-07T05:25:57;8.80;;;7.90;;
12947;SDS011;6539;49.476;8.484;2023-04-07T05:28:23;9.03;;;7.77;;
12947;SDS011;6539;49.476;8.484;2023-04-07T05:30:49;8.50;;;7.60;;
12947;SDS011;6539;49.476;8.484;2023-04-07T05:33:15;10.63;;;8.07;;
12947;SDS011;6539;49.476;8.484;2023-04-07T05:35:43;11.03;;;8.00;;
12947;SDS011;6539;49.476;8.484;2023-04-07T05:38:11;11.07;;;7.90;;
12947;SDS011;6539;49.476;8.484;2023-04-07T05:40:40;10.93;;;8.40;;
12947;SDS011;6539;49.476;8.484;2023-04-07T05:43:08;11.27;;;9.03;;
12947;SDS011;6539;49.476;8.484;2023-04-07T05:45:37;10.80;;;8.27;;
12947;SDS011;6539;49.476;8.484;2023-04-07T05:48:05;9.93;;;8.00;;
12947;SDS011;6539;49.476;8.484;2023-04-07T05:50:32;11.03;;;7.73;;
12947;SDS011;6539;49.476;8.484;2023-04-07T05:53:00;11.03;;;8.20;;
12947;SDS011;6539;49.476;8.484;2023-04-07T05:55:26;11.80;;;8.60;;
12947;SDS011;6539;49.476;8.484;2023-04-07T05:57:55;8.23;;;7.30;;
12947;SDS011;6539;49.476;8.484;2023-04-07T06:00:21;8.87;;;7.97;;
12947;SDS011;6539;49.476;8.484;2023-04-07T06:02:54;9.97;;;7.67;;
12947;SDS011;6539;49.476;8.484;2023-04-07T06:05:19;12.60;;;8.30;;
12947;SDS011;6539;49.476;8.484;2023-04-07T06:07:47;8.83;;;7.73;;
12947;SDS011;6539;49.476;8.484;2023-04-07T06:10:16;11.97;;;8.30;;
12947;SDS011;6539;49.476;8.484;2023-04-07T06:12:41;10.33;;;8.60;;
12947;SDS011;6539;49.476;8.484;2023-04-07T06:15:12;11.63;;;7.90;;
12947;SDS011;6539;49.476;8.484;2023-04-07T06:17:40;8.63;;;7.73;;
12947;SDS011;6539;49.476;8.484;2023-04-07T06:20:10;11.00;;;7.87;;
12947;SDS011;6539;49.476;8.484;2023-04-07T06:22:38;8.70;;;7.70;;
12947;SDS011;6539;49.476;8.484;2023-04-07T06:25:04;11.03;;;8.37;;
12947;SDS011;6539;49.476;8.484;2023-04-07T06:27:31;10.37;;;7.53;;
12947;SDS011;6539;49.476;8.484;2023-04-07T06:29:57;10.10;;;8.27;;
12947;SDS011;6539;49.476;8.484;2023-04-07T06:32:23;12.00;;;8.23;;
12947;SDS011;6539;49.476;8.484;2023-04-07T06:34:49;9.17;;;7.80;;
12947;SDS011;6539;49.476;8.484;2023-04-07T06:37:15;9.97;;;8.23;;
12947;SDS011;6539;49.476;8.484;2023-04-07T06:39:42;10.30;;;8.60;;
12947;SDS011;6539;49.476;8.484;2023-04-07T06:42:08;11.87;;;8.63;;
12947;SDS011;6539;49.476;8.484;2023-04-07T06:44:33;11.50;;;9.03;;
12947;SDS011;6539;49.476;8.484;2023-04-07T06:47:04;9.37;;;8.20;;
12947;SDS011;6539;49.476;8.484;2023-04-07T06:49:32;11.27;;;8.50;;
12947;SDS011;6539;49.476;8.484;2023-04-07T06:51:58;10.53;;;9.10;;
12947;SDS011;6539;49.476;8.484;2023-04-07T06:54:23;10.47;;;8.67;;
12947;SDS011;6539;49.476;8.484;2023-04-07T06:56:52;11.17;;;8.17;;
12947;SDS011;6539;49.476;8.484;2023-04-07T06:59:23;10.17;;;8.20;;
12947;SDS011;6539;49.476;8.484;2023-04-07T07:01:51;10.50;;;8.47;;
12947;SDS011;6539;49.476;8.484;2023-04-07T07:04:19;10.57;;;8.80;;
12947;SDS011;6539;49.476;8.484;2023-04-07T07:06:47;11.00;;;8.27;;
12947;SDS011;6539;49.476;8.484;2023-04-07T07:09:13;9.00;;;7.50;;
12947;SDS011;6539;49.476;8.484;2023-04-07T07:11:42;8.73;;;7.37;;
12947;SDS011;6539;49.476;8.484;2023-04-07T07:14:07;8.40;;;7.53;;
12947;SDS011;6539;49.476;8.484;2023-04-07T07:16:35;9.83;;;7.57;;
12947;SDS011;6539;49.476;8.484;2023-04-07T07:19:07;10.40;;;8.27;;
12947;SDS011;6539;49.476;8.484;2023-04-07T07:21:33;8.27;;;7.37;;
12947;SDS011;6539;49.476;8.484;2023-04-07T07:24:01;8.67;;;7.50;;
12947;SDS011;6539;49.476;8.484;2023-04-07T07:26:32;8.70;;;7.30;;
12947;SDS011;6539;49.476;8.484;2023-04-07T07:28:57;9.40;;;7.47;;
12947;SDS011;6539;49.476;8.484;2023-04-07T07:31:23;10.10;;;7.20;;
12947;SDS011;6539;49.476;8.484;2023-04-07T07:33:51;10.80;;;7.53;;
12947;SDS011;6539;49.476;8.484;2023-04-07T07:36:17;8.60;;;6.93;;
12947;SDS011;6539;49.476;8.484;2023-04-07T07:38:45;8.60;;;7.23;;
12947;SDS011;6539;49.476;8.484;2023-04-07T07:41:16;8.30;;;7.20;;
12947;SDS011;6539;49.476;8.484;2023-04-07T07:43:45;7.73;;;6.83;;
12947;SDS011;6539;49.476;8.484;2023-04-07T07:46:13;8.70;;;7.23;;
12947;SDS011;6539;49.476;8.484;2023-04-07T07:48:38;8.07;;;6.23;;
12947;SDS011;6539;49.476;8.484;2023-04-07T07:51:10;9.47;;;6.90;;
12947;SDS011;6539;49.476;8.484;2023-04-07T07:53:38;8.27;;;6.70;;
12947;SDS011;6539;49.476;8.484;2023-04-07T07:56:04;12.13;;;7.10;;
12947;SDS011;6539;49.476;8.484;2023-04-07T07:58:35;6.23;;;5.63;;
12947;SDS011;6539;49.476;8.484;2023-04-07T08:01:01;8.50;;;5.47;;
12947;SDS011;6539;49.476;8.484;2023-04-07T08:03:26;8.97;;;5.93;;
12947;SDS011;6539;49.476;8.484;2023-04-07T08:05:54;5.97;;;5.37;;
12947;SDS011;6539;49.476;8.484;2023-04-07T08:08:22;7.10;;;5.17;;
12947;SDS011;6539;49.476;8.484;2023-04-07T08:10:50;7.37;;;5.03;;
12947;SDS011;6539;49.476;8.484;2023-04-07T08:13:19;6.80;;;5.03;;
12947;SDS011;6539;49.476;8.484;2023-04-07T08:15:44;7.37;;;5.33;;
12947;SDS011;6539;49.476;8.484;2023-04-07T08:18:12;9.13;;;5.30;;
12947;SDS011;6539;49.476;8.484;2023-04-07T08:20:43;7.03;;;5.77;;
12947;SDS011;6539;49.476;8.484;2023-04-07T08:23:11;5.23;;;4.60;;
12947;SDS011;6539;49.476;8.484;2023-04-07T08:25:42;6.50;;;5.37;;
12947;SDS011;6539;49.476;8.484;2023-04-07T08:28:07;7.40;;;5.83;;
12947;SDS011;6539;49.476;8.484;2023-04-07T08:30:33;8.33;;;5.73;;
12947;SDS011;6539;49.476;8.484;2023-04-07T08:32:59;8.70;;;5.90;;
12947;SDS011;6539;49.476;8.484;2023-04-07T08:35:27;6.10;;;5.20;;
12947;SDS011;6539;49.476;8.484;2023-04-07T08:37:55;10.17;;;6.00;;
12947;SDS011;6539;49.476;8.484;2023-04-07T08:40:23;8.10;;;5.53;;
12947;SDS011;6539;49.476;8.484;2023-04-07T08:42:51;6.83;;;5.17;;
12947;SDS011;6539;49.476;8.484;2023-04-07T08:45:17;7.73;;;5.60;;
12947;SDS011;6539;49.476;8.484;2023-04-07T08:47:43;7.57;;;5.77;;
12947;SDS011;6539;49.476;8.484;2023-04-07T08:50:14;5.53;;;4.93;;
12947;SDS011;6539;49.476;8.484;2023-04-07T08:52:44;9.10;;;5.90;;
12947;SDS011;6539;49.476;8.484;2023-04-07T08:55:21;8.03;;;5.57;;
12947;SDS011;6539;49.476;8.484;2023-04-07T08:57:50;8.43;;;5.17;;
12947;SDS011;6539;49.476;8.484;2023-04-07T09:00:17;6.10;;;5.13;;
12947;SDS011;6539;49.476;8.484;2023-04-07T09:02:43;9.27;;;5.27;;
12947;SDS011;6539;49.476;8.484;2023-04-07T09:05:09;5.53;;;4.70;;
12947;SDS011;6539;49.476;8.484;2023-04-07T09:07:39;6.27;;;4.47;;
12947;SDS011;6539;49.476;8.484;2023-04-07T09:10:09;5.40;;;3.57;;
12947;SDS011;6539;49.476;8.484;2023-04-07T09:12:40;3.97;;;3.30;;
12947;SDS011;6539;49.476;8.484;2023-04-07T09:15:08;4.37;;;3.07;;
12947;SDS011;6539;49.476;8.484;2023-04-07T09:17:36;2.93;;;2.70;;
12947;SDS011;6539;49.476;8.484;2023-04-07T09:20:05;4.60;;;3.33;;
12947;SDS011;6539;49.476;8.484;2023-04-07T09:22:35;3.47;;;2.90;;
12947;SDS011;6539;49.476;8.484;2023-04-07T09:25:12;3.23;;;2.60;;
12947;SDS011;6539;49.476;8.484;2023-04-07T09:27:59;3.30;;;2.93;;
12947;SDS011;6539;49.476;8.484;2023-04-07T09:30:30;3.30;;;2.80;;
12947;SDS011;6539;49.476;8.484;2023-04-07T09:32:58;4.30;;;3.27;;
12947;SDS011;6539;49.476;8.484;2023-04-07T09:35:29;6.03;;;3.70;;
12947;SDS011;6539;49.476;8.484;2023-04-07T09:38:16;5.00;;;3.73;;
12947;SDS011;6539;49.476;8.484;2023-04-07T09:40:41;5.00;;;3.83;;
12947;SDS011;6539;49.476;8.484;2023-04-07T09:43:13;5.00;;;4.20;;
12947;SDS011;6539;49.476;8.484;2023-04-07T09:45:43;9.87;;;4.90;;
12947;SDS011;6539;49.476;8.484;2023-04-07T09:48:19;5.77;;;4.53;;
12947;SDS011;6539;49.476;8.484;2023-04-07T09:50:48;9.50;;;5.40;;
12947;SDS011;6539;49.476;8.484;2023-04-07T09:53:15;5.53;;;4.33;;
12947;SDS011;6539;49.476;8.484;2023-04-07T09:55:44;5.97;;;5.10;;
12947;SDS011;6539;49.476;8.484;2023-04-07T09:58:13;7.30;;;5.03;;
12947;SDS011;6539;49.476;8.484;2023-04-07T10:00:44;5.80;;;5.00;;
12947;SDS011;6539;49.476;8.484;2023-04-07T10:03:11;8.07;;;6.43;;
12947;SDS011;6539;49.476;8.484;2023-04-07T10:05:41;10.67;;;7.10;;
12947;SDS011;6539;49.476;8.484;2023-04-07T10:08:12;8.43;;;7.13;;
12947;SDS011;6539;49.476;8.484;2023-04-07T10:10:39;5.10;;;4.60;;
12947;SDS011;6539;49.476;8.484;2023-04-07T10:13:08;8.07;;;6.40;;
12947;SDS011;6539;49.476;8.484;2023-04-07T10:15:38;3.67;;;3.27;;
12947;SDS011;6539;49.476;8.484;2023-04-07T10:18:04;5.50;;;3.60;;
12947;SDS011;6539;49.476;8.484;2023-04-07T10:20:35;3.30;;;3.00;;
12947;SDS011;6539;49.476;8.484;2023-04-07T10:23:12;3.70;;;2.80;;
12947;SDS011;6539;49.476;8.484;2023-04-07T10:25:53;4.33;;;2.60;;
12947;SDS011;6539;49.476;8.484;2023-04-07T10:28:23;4.73;;;2.77;;
12947;SDS011;6539;49.476;8.484;2023-04-07T10:30:52;2.60;;;2.40;;
12947;SDS011;6539;49.476;8.484;2023-04-07T10:33:46;2.73;;;2.43;;
12947;SDS011;6539;49.476;8.484;2023-04-07T10:36:17;2.63;;;1.90;;
12947;SDS011;6539;49.476;8.484;2023-04-07T10:41:35;6.47;;;3.90;;
12947;SDS011;6539;49.476;8.484;2023-04-07T10:44:03;6.97;;;5.33;;
12947;SDS011;6539;49.476;8.484;2023-04-07T10:49:15;2.77;;;2.33;;
12947;SDS011;6539;49.476;8.484;2023-04-07T10:51:41;2.73;;;2.40;;
12947;SDS011;6539;49.476;8.484;2023-04-07T10:54:32;3.73;;;3.17;;
12947;SDS011;6539;49.476;8.484;2023-04-07T10:59:33;2.93;;;2.70;;
12947;SDS011;6539;49.476;8.484;2023-04-07T11:04:42;3.67;;;2.83;;
12947;SDS011;6539;49.476;8.484;2023-04-07T11:07:12;2.73;;;2.53;;
12947;SDS011;6539;49.476;8.484;2023-04-07T11:09:46;3.93;;;2.90;;
12947;SDS011;6539;49.476;8.484;2023-04-07T11:12:32;3.63;;;2.40;;
12947;SDS011;6539;49.476;8.484;2023-04-07T11:14:58;4.73;;;2.70;;
12947;SDS011;6539;49.476;8.484;2023-04-07T11:17:46;2.30;;;2.10;;
12947;SDS011;6539;49.476;8.484;2023-04-07T11:20:48;2.70;;;2.40;;
12947;SDS011;6539;49.476;8.484;2023-04-07T11:23:17;2.77;;;2.57;;
12947;SDS011;6539;49.476;8.484;2023-04-07T11:25:46;2.90;;;2.70;;
12947;SDS011;6539;49.476;8.484;2023-04-07T11:28:18;3.00;;;2.70;;
12947;SDS011;6539;49.476;8.484;2023-04-07T11:30:45;2.90;;;2.70;;
12947;SDS011;6539;49.476;8.484;2023-04-07T11:33:20;2.90;;;2.60;;
12947;SDS011;6539;49.476;8.484;2023-04-07T11:35:52;2.70;;;2.43;;
12947;SDS011;6539;49.476;8.484;2023-04-07T11:38:23;2.87;;;2.50;;
12947;SDS011;6539;49.476;8.484;2023-04-07T11:41:08;6.30;;;4.40;;
12947;SDS011;6539;49.476;8.484;2023-04-07T11:43:41;3.70;;;3.00;;
12947;SDS011;6539;49.476;8.484;2023-04-07T11:46:10;3.03;;;2.73;;
12947;SDS011;6539;49.476;8.484;2023-04-07T11:48:41;2.63;;;2.10;;
12947;SDS011;6539;49.476;8.484;2023-04-07T11:51:16;2.77;;;2.30;;
12947;SDS011;6539;49.476;8.484;2023-04-07T11:53:46;3.60;;;2.13;;
12947;SDS011;6539;49.476;8.484;2023-04-07T11:56:23;3.13;;;1.87;;
12947;SDS011;6539;49.476;8.484;2023-04-07T11:58:52;2.20;;;2.00;;
12947;SDS011;6539;49.476;8.484;2023-04-07T12:01:22;2.43;;;2.23;;
12947;SDS011;6539;49.476;8.484;2023-04-07T12:03:58;2.50;;;2.20;;
12947;SDS011;6539;49.476;8.484;2023-04-07T12:06:34;2.47;;;2.23;;
12947;SDS011;6539;49.476;8.484;2023-04-07T12:09:05;2.57;;;2.37;;
12947;SDS011;6539;49.476;8.484;2023-04-07T12:11:33;2.97;;;2.67;;
12947;SDS011;6539;49.476;8.484;2023-04-07T12:14:03;2.60;;;2.40;;
12947;SDS011;6539;49.476;8.484;2023-04-07T12:16:36;3.43;;;2.60;;
12947;SDS011;6539;49.476;8.484;2023-04-07T12:19:03;2.90;;;2.60;;
12947;SDS011;6539;49.476;8.484;2023-04-07T12:21:28;4.07;;;2.60;;
12947;SDS011;6539;49.476;8.484;2023-04-07T12:23:59;3.53;;;2.70;;
12947;SDS011;6539;49.476;8.484;2023-04-07T12:26:27;3.27;;;2.97;;
12947;SDS011;6539;49.476;8.484;2023-04-07T12:28:53;5.00;;;3.20;;
12947;SDS011;6539;49.476;8.484;2023-04-07T12:31:19;3.10;;;2.77;;
12947;SDS011;6539;49.476;8.484;2023-04-07T12:33:45;3.33;;;3.03;;
12947;SDS011;6539;49.476;8.484;2023-04-07T12:36:11;3.40;;;3.10;;
12947;SDS011;6539;49.476;8.484;2023-04-07T12:38:37;2.90;;;2.60;;
12947;SDS011;6539;49.476;8.484;2023-04-07T12:41:03;2.80;;;2.60;;
12947;SDS011;6539;49.476;8.484;2023-04-07T12:43:31;3.43;;;2.70;;
12947;SDS011;6539;49.476;8.484;2023-04-07T12:45:59;3.37;;;3.07;;
12947;SDS011;6539;49.476;8.484;2023-04-07T12:48:25;3.87;;;3.27;;
12947;SDS011;6539;49.476;8.484;2023-04-07T12:50:55;3.53;;;3.23;;
12947;SDS011;6539;49.476;8.484;2023-04-07T12:53:21;3.90;;;3.17;;
12947;SDS011;6539;49.476;8.484;2023-04-07T12:55:47;3.73;;;3.27;;
12947;SDS011;6539;49.476;8.484;2023-04-07T12:58:15;3.50;;;3.20;;
12947;SDS011;6539;49.476;8.484;2023-04-07T13:00:41;3.77;;;3.37;;
12947;SDS011;6539;49.476;8.484;2023-04-07T13:03:11;4.17;;;3.60;;
12947;SDS011;6539;49.476;8.484;2023-04-07T13:05:39;4.63;;;4.00;;
12947;SDS011;6539;49.476;8.484;2023-04-07T13:08:07;3.50;;;3.20;;
12947;SDS011;6539;49.476;8.484;2023-04-07T13:10:32;3.20;;;2.80;;
12947;SDS011;6539;49.476;8.484;2023-04-07T13:12:58;3.30;;;3.00;;
12947;SDS011;6539;49.476;8.484;2023-04-07T13:15:24;3.63;;;2.97;;
12947;SDS011;6539;49.476;8.484;2023-04-07T13:17:53;3.50;;;3.20;;
12947;SDS011;6539;49.476;8.484;2023-04-07T13:20:19;3.57;;;3.13;;
12947;SDS011;6539;49.476;8.484;2023-04-07T13:22:48;3.37;;;2.83;;
12947;SDS011;6539;49.476;8.484;2023-04-07T13:25:18;3.07;;;2.57;;
12947;SDS011;6539;49.476;8.484;2023-04-07T13:27:44;2.77;;;2.43;;
12947;SDS011;6539;49.476;8.484;2023-04-07T13:30:12;3.47;;;2.90;;
12947;SDS011;6539;49.476;8.484;2023-04-07T13:32:38;2.70;;;2.50;;
12947;SDS011;6539;49.476;8.484;2023-04-07T13:35:08;5.00;;;3.50;;
12947;SDS011;6539;49.476;8.484;2023-04-07T13:37:34;4.07;;;3.40;;
12947;SDS011;6539;49.476;8.484;2023-04-07T13:40:06;5.03;;;3.60;;
12947;SDS011;6539;49.476;8.484;2023-04-07T13:42:32;3.97;;;3.60;;
12947;SDS011;6539;49.476;8.484;2023-04-07T13:44:58;5.20;;;3.43;;
12947;SDS011;6539;49.476;8.484;2023-04-07T13:47:24;4.00;;;3.60;;
12947;SDS011;6539;49.476;8.484;2023-04-07T13:49:50;4.17;;;3.77;;
12947;SDS011;6539;49.476;8.484;2023-04-07T13:52:16;4.23;;;3.73;;
12947;SDS011;6539;49.476;8.484;2023-04-07T13:54:43;4.13;;;3.67;;
12947;SDS011;6539;49.476;8.484;2023-04-07T13:57:09;4.53;;;3.77;;
12947;SDS011;6539;49.476;8.484;2023-04-07T13:59:35;4.37;;;3.70;;
12947;SDS011;6539;49.476;8.484;2023-04-07T14:02:04;4.43;;;3.87;;
12947;SDS011;6539;49.476;8.484;2023-04-07T14:04:29;4.27;;;3.87;;
12947;SDS011;6539;49.476;8.484;2023-04-07T14:06:56;4.43;;;3.43;;
12947;SDS011;6539;49.476;8.484;2023-04-07T14:09:22;3.67;;;3.37;;
12947;SDS011;6539;49.476;8.484;2023-04-07T14:11:48;3.73;;;3.43;;
12947;SDS011;6539;49.476;8.484;2023-04-07T14:14:16;4.27;;;3.87;;
12947;SDS011;6539;49.476;8.484;2023-04-07T14:16:42;3.40;;;3.10;;
12947;SDS011;6539;49.476;8.484;2023-04-07T14:19:08;3.17;;;2.90;;
12947;SDS011;6539;49.476;8.484;2023-04-07T14:21:34;3.50;;;3.20;;
12947;SDS011;6539;49.476;8.484;2023-04-07T14:24:02;3.30;;;3.00;;
12947;SDS011;6539;49.476;8.484;2023-04-07T14:26:28;2.97;;;2.77;;
12947;SDS011;6539;49.476;8.484;2023-04-07T14:28:54;3.40;;;3.00;;
12947;SDS011;6539;49.476;8.484;2023-04-07T14:31:20;2.80;;;2.60;;
12947;SDS011;6539;49.476;8.484;2023-04-07T14:33:46;2.97;;;2.67;;
12947;SDS011;6539;49.476;8.484;2023-04-07T14:36:13;3.70;;;3.40;;
12947;SDS011;6539;49.476;8.484;2023-04-07T14:38:41;2.83;;;2.60;;
12947;SDS011;6539;49.476;8.484;2023-04-07T14:41:09;3.07;;;2.70;;
12947;SDS011;6539;49.476;8.484;2023-04-07T14:43:35;3.30;;;3.00;;
12947;SDS011;6539;49.476;8.484;2023-04-07T14:46:02;3.60;;;2.60;;
12947;SDS011;6539;49.476;8.484;2023-04-07T14:48:28;3.80;;;2.70;;
12947;SDS011;6539;49.476;8.484;2023-04-07T14:50:59;3.10;;;2.57;;
12947;SDS011;6539;49.476;8.484;2023-04-07T14:53:27;3.40;;;3.10;;
12947;SDS011;6539;49.476;8.484;2023-04-07T14:55:55;3.33;;;3.03;;
12947;SDS011;6539;49.476;8.484;2023-04-07T14:58:26;3.57;;;2.97;;
12947;SDS011;6539;49.476;8.484;2023-04-07T15:00:57;3.33;;;3.00;;
12947;SDS011;6539;49.476;8.484;2023-04-07T15:03:25;3.00;;;2.73;;
12947;SDS011;6539;49.476;8.484;2023-04-07T15:05:53;3.07;;;2.87;;
12947;SDS011;6539;49.476;8.484;2023-04-07T15:08:19;3.33;;;2.80;;
12947;SDS011;6539;49.476;8.484;2023-04-07T15:10:44;4.40;;;2.73;;
12947;SDS011;6539;49.476;8.484;2023-04-07T15:13:10;3.80;;;3.17;;
12947;SDS011;6539;49.476;8.484;2023-04-07T15:15:36;3.40;;;3.10;;
12947;SDS011;6539;49.476;8.484;2023-04-07T15:18:02;3.60;;;3.03;;
12947;SDS011;6539;49.476;8.484;2023-04-07T15:20:28;6.17;;;3.13;;
12947;SDS011;6539;49.476;8.484;2023-04-07T15:22:55;3.30;;;2.77;;
12947;SDS011;6539;49.476;8.484;2023-04-07T15:25:21;2.97;;;2.77;;